createdAt,value
2018-09-24T00:00:54.275Z,17.31
2018-09-24T00:03:24.133Z,17.25
2018-09-24T00:05:54.623Z,17.24
2018-09-24T00:08:25.704Z,17.22
2018-09-24T00:10:55.874Z,17.19
2018-09-24T00:13:26.400Z,17.17
2018-09-24T00:15:56.380Z,17.04
2018-09-24T00:18:26.429Z,16.90
2018-09-24T00:20:56.110Z,16.71
2018-09-24T00:23:26.078Z,16.59
2018-09-24T00:25:55.787Z,16.48
2018-09-24T00:28:25.794Z,16.29
2018-09-24T00:30:55.570Z,16.17
2018-09-24T00:33:25.457Z,16.12
2018-09-24T00:38:45.301Z,15.99
2018-09-24T00:44:06.083Z,15.85
2018-09-24T00:46:36.649Z,15.77
2018-09-24T00:49:06.564Z,15.74
2018-09-24T00:51:36.598Z,15.74
2018-09-24T00:54:06.935Z,15.72
2018-09-24T00:56:36.864Z,15.68
2018-09-24T00:59:06.870Z,15.62
2018-09-24T01:01:36.845Z,15.56
2018-09-24T01:04:06.894Z,15.50
2018-09-24T01:06:36.677Z,15.46
2018-09-24T01:09:09.316Z,15.42
2018-09-24T01:11:39.311Z,15.38
2018-09-24T01:14:09.159Z,15.35
2018-09-24T01:16:39.058Z,15.33
2018-09-24T01:19:09.314Z,15.32
2018-09-24T01:21:39.069Z,15.31
2018-09-24T01:24:09.020Z,15.27
2018-09-24T01:26:38.721Z,15.22
2018-09-24T01:29:08.676Z,15.21
2018-09-24T01:31:38.448Z,15.20
2018-09-24T01:34:08.497Z,15.18
2018-09-24T01:36:38.249Z,15.15
2018-09-24T01:39:09.284Z,15.21
2018-09-24T01:44:41.868Z,15.11
2018-09-24T01:47:11.563Z,15.09
2018-09-24T01:49:41.305Z,15.08
2018-09-24T01:52:11.066Z,15.07
2018-09-24T01:54:40.844Z,15.05
2018-09-24T01:57:17.595Z,15.05
2018-09-24T01:59:54.087Z,15.04
2018-09-24T02:02:23.775Z,14.98
2018-09-24T02:04:53.623Z,14.98
2018-09-24T02:07:23.451Z,14.95
2018-09-24T02:09:53.478Z,14.95
2018-09-24T02:12:23.298Z,14.93
2018-09-24T02:14:53.286Z,14.85
2018-09-24T02:17:24.182Z,14.72
2018-09-24T02:19:54.119Z,14.60
2018-09-24T02:22:28.238Z,14.45
2018-09-24T02:24:59.099Z,14.38
2018-09-24T02:27:29.199Z,14.32
2018-09-24T02:29:59.236Z,14.27
2018-09-24T02:32:29.005Z,14.22
2018-09-24T02:34:59.542Z,14.19
2018-09-24T02:37:29.245Z,14.16
2018-09-24T02:39:59.336Z,14.14
2018-09-24T02:42:29.017Z,14.13
2018-09-24T02:44:59.724Z,14.09
2018-09-24T02:47:33.476Z,14.08
2018-09-24T02:50:04.376Z,14.05
2018-09-24T02:52:34.109Z,14.04
2018-09-24T02:55:05.777Z,14.04
2018-09-24T02:57:35.531Z,14.03
2018-09-24T03:00:05.506Z,14.00
2018-09-24T03:02:35.395Z,13.96
2018-09-24T03:05:05.716Z,13.93
2018-09-24T03:07:35.529Z,13.93
2018-09-24T03:10:05.550Z,13.91
2018-09-24T03:12:35.377Z,13.90
2018-09-24T03:15:05.139Z,13.88
2018-09-24T03:17:34.947Z,13.87
2018-09-24T03:20:05.083Z,13.84
2018-09-24T03:22:34.832Z,13.80
2018-09-24T03:25:04.836Z,13.75
2018-09-24T03:27:34.606Z,13.65
2018-09-24T03:30:04.667Z,13.52
2018-09-24T03:32:34.902Z,13.40
2018-09-24T03:35:05.130Z,13.31
2018-09-24T03:37:34.948Z,13.26
2018-09-24T03:40:04.853Z,13.21
2018-09-24T03:42:34.637Z,13.16
2018-09-24T03:45:04.649Z,13.12
2018-09-24T03:47:34.476Z,13.11
2018-09-24T03:50:04.486Z,13.10
2018-09-24T03:52:34.203Z,13.08
2018-09-24T03:55:03.934Z,13.06
2018-09-24T03:57:33.705Z,13.04
2018-09-24T04:00:03.716Z,13.04
2018-09-24T04:02:33.681Z,13.01
2018-09-24T04:05:08.329Z,12.97
2018-09-24T04:07:43.002Z,12.93
2018-09-24T04:10:17.824Z,12.90
2018-09-24T04:12:52.565Z,12.86
2018-09-24T04:15:27.539Z,12.83
2018-09-24T04:18:02.423Z,12.82
2018-09-24T04:20:37.308Z,12.81
2018-09-24T04:23:12.273Z,12.84
2018-09-24T04:25:47.149Z,12.83
2018-09-24T04:28:21.879Z,12.81
2018-09-24T04:30:56.657Z,12.82
2018-09-24T04:33:31.273Z,12.80
2018-09-24T04:36:06.169Z,12.81
2018-09-24T04:38:42.102Z,12.80
2018-09-24T04:41:16.738Z,12.81
2018-09-24T04:43:51.377Z,12.83
2018-09-24T04:46:26.192Z,12.85
2018-09-24T04:49:01.021Z,12.85
2018-09-24T04:51:35.721Z,12.79
2018-09-24T04:54:10.637Z,12.76
2018-09-24T04:56:45.294Z,12.72
2018-09-24T04:59:20.300Z,12.70
2018-09-24T05:01:54.907Z,12.71
2018-09-24T05:04:30.362Z,12.68
2018-09-24T05:07:05.144Z,12.67
2018-09-24T05:09:40.168Z,12.66
2018-09-24T05:12:14.938Z,12.66
2018-09-24T05:14:50.427Z,12.66
2018-09-24T05:17:25.411Z,12.64
2018-09-24T05:20:00.340Z,12.69
2018-09-24T05:22:35.183Z,12.67
2018-09-24T05:25:10.252Z,12.66
2018-09-24T05:27:45.304Z,12.67
2018-09-24T05:30:20.601Z,12.66
2018-09-24T05:32:55.336Z,12.64
2018-09-24T05:35:30.260Z,12.63
2018-09-24T05:38:05.698Z,12.64
2018-09-24T05:40:41.376Z,12.64
2018-09-24T05:43:16.539Z,12.66
2018-09-24T05:45:51.559Z,12.68
2018-09-24T05:48:26.960Z,12.72
2018-09-24T05:51:01.935Z,12.77
2018-09-24T05:53:36.826Z,12.85
2018-09-24T05:56:11.647Z,12.91
2018-09-24T05:58:46.576Z,12.96
2018-09-24T06:01:21.855Z,13.02
2018-09-24T06:03:56.847Z,13.02
2018-09-24T06:06:34.807Z,13.08
2018-09-24T06:09:12.882Z,13.11
2018-09-24T06:11:49.166Z,13.14
2018-09-24T06:14:23.926Z,13.21
2018-09-24T06:16:58.504Z,13.30
2018-09-24T06:19:33.519Z,13.37
2018-09-24T06:22:08.691Z,13.38
2018-09-24T06:24:43.600Z,13.38
2018-09-24T06:27:18.385Z,13.34
2018-09-24T06:29:53.465Z,13.25
2018-09-24T06:32:29.497Z,13.18
2018-09-24T06:35:04.675Z,13.12
2018-09-24T06:37:39.797Z,13.14
2018-09-24T06:40:14.903Z,13.18
2018-09-24T06:42:49.941Z,13.22
2018-09-24T06:45:24.664Z,13.30
2018-09-24T06:47:59.341Z,13.35
2018-09-24T06:50:34.776Z,13.42
2018-09-24T06:53:09.420Z,13.46
2018-09-24T06:55:44.379Z,13.55
2018-09-24T06:58:19.085Z,13.70
2018-09-24T07:00:54.375Z,13.86
2018-09-24T07:03:29.121Z,14.00
2018-09-24T07:06:04.120Z,13.99
2018-09-24T07:08:38.620Z,14.11
2018-09-24T07:11:13.488Z,14.37
2018-09-24T07:13:48.240Z,14.53
2018-09-24T07:16:22.900Z,14.64
2018-09-24T07:18:57.604Z,14.77
2018-09-24T07:21:32.424Z,14.93
2018-09-24T07:24:07.225Z,14.94
2018-09-24T07:26:41.957Z,15.01
2018-09-24T07:29:16.673Z,15.17
2018-09-24T07:31:51.656Z,15.19
2018-09-24T07:34:26.417Z,15.13
2018-09-24T07:37:01.087Z,15.22
2018-09-24T07:39:36.897Z,15.30
2018-09-24T07:42:11.379Z,15.15
2018-09-24T07:44:46.269Z,15.21
2018-09-24T07:47:21.008Z,15.28
2018-09-24T07:49:55.907Z,15.41
2018-09-24T07:52:30.923Z,15.60
2018-09-24T07:55:05.612Z,15.70
2018-09-24T07:57:40.335Z,15.58
2018-09-24T08:00:16.131Z,15.57
2018-09-24T08:02:50.745Z,15.46
2018-09-24T08:05:25.562Z,15.34
2018-09-24T08:08:00.354Z,15.28
2018-09-24T08:10:35.401Z,15.21
2018-09-24T08:13:09.982Z,15.12
2018-09-24T08:15:44.536Z,15.09
2018-09-24T08:18:19.182Z,15.17
2018-09-24T08:20:54.033Z,15.21
2018-09-24T08:23:28.698Z,15.20
2018-09-24T08:26:03.482Z,15.20
2018-09-24T08:28:38.180Z,15.17
2018-09-24T08:31:13.475Z,15.10
2018-09-24T08:33:48.175Z,15.12
2018-09-24T08:36:23.017Z,15.05
2018-09-24T08:38:57.617Z,15.00
2018-09-24T08:41:32.564Z,14.95
2018-09-24T08:44:07.339Z,14.86
2018-09-24T08:46:42.049Z,14.83
2018-09-24T08:49:16.831Z,14.80
2018-09-24T08:51:51.567Z,14.79
2018-09-24T08:54:26.423Z,14.75
2018-09-24T08:57:01.173Z,15.05
2018-09-24T08:59:35.839Z,15.81
2018-09-24T09:02:13.777Z,16.32
2018-09-24T09:04:48.678Z,16.56
2018-09-24T09:07:23.456Z,16.55
2018-09-24T09:09:58.017Z,16.52
2018-09-24T09:12:33.556Z,16.63
2018-09-24T09:15:08.376Z,16.73
2018-09-24T09:17:43.065Z,16.85
2018-09-24T09:20:17.797Z,16.94
2018-09-24T09:22:52.377Z,16.87
2018-09-24T09:25:27.118Z,17.06
2018-09-24T09:28:01.738Z,17.17
2018-09-24T09:30:36.677Z,17.11
2018-09-24T09:33:11.317Z,16.86
2018-09-24T09:35:46.118Z,16.59
2018-09-24T09:38:20.719Z,16.31
2018-09-24T09:40:55.757Z,16.25
2018-09-24T09:43:30.257Z,16.56
2018-09-24T09:46:05.210Z,16.94
2018-09-24T09:48:39.957Z,17.36
2018-09-24T09:51:14.858Z,17.73
2018-09-24T09:53:49.395Z,17.85
2018-09-24T09:56:24.181Z,17.87
2018-09-24T09:58:58.869Z,17.74
2018-09-24T10:01:33.850Z,17.38
2018-09-24T10:04:08.539Z,16.97
2018-09-24T10:06:43.618Z,16.65
2018-09-24T10:09:18.042Z,16.46
2018-09-24T10:11:52.758Z,16.40
2018-09-24T10:14:27.382Z,16.22
2018-09-24T10:17:02.100Z,16.31
2018-09-24T10:19:36.574Z,16.51
2018-09-24T10:22:11.328Z,16.38
2018-09-24T10:24:45.916Z,16.36
2018-09-24T10:27:20.568Z,16.55
2018-09-24T10:29:55.174Z,16.54
2018-09-24T10:32:36.916Z,16.66
2018-09-24T10:35:11.565Z,16.99
2018-09-24T10:37:46.934Z,17.28
2018-09-24T10:40:21.626Z,17.69
2018-09-24T10:42:56.906Z,18.17
2018-09-24T10:45:31.465Z,18.17
2018-09-24T10:48:06.394Z,17.81
2018-09-24T10:50:41.547Z,17.61
2018-09-24T10:53:16.376Z,17.57
2018-09-24T10:55:51.155Z,17.43
2018-09-24T10:58:25.797Z,17.20
2018-09-24T11:01:00.522Z,17.03
2018-09-24T11:03:35.284Z,16.88
2018-09-24T11:06:10.243Z,16.68
2018-09-24T11:08:44.938Z,16.51
2018-09-24T11:11:19.819Z,16.39
2018-09-24T11:13:54.337Z,16.31
2018-09-24T11:16:30.095Z,16.23
2018-09-24T11:19:04.506Z,16.21
2018-09-24T11:21:39.356Z,16.34
2018-09-24T11:24:15.540Z,16.39
2018-09-24T11:26:50.073Z,16.26
2018-09-24T11:29:24.462Z,16.34
2018-09-24T11:31:59.197Z,16.83
2018-09-24T11:34:33.866Z,17.20
2018-09-24T11:37:08.654Z,17.51
2018-09-24T11:39:43.287Z,17.68
2018-09-24T11:42:18.197Z,17.68
2018-09-24T11:44:53.048Z,17.88
2018-09-24T11:47:27.849Z,18.01
2018-09-24T11:50:02.529Z,18.04
2018-09-24T11:52:37.386Z,18.05
2018-09-24T11:55:12.115Z,18.06
2018-09-24T11:57:46.994Z,17.94
2018-09-24T12:00:21.676Z,17.72
2018-09-24T12:02:56.601Z,17.54
2018-09-24T12:05:31.440Z,17.39
2018-09-24T12:08:06.383Z,17.16
2018-09-24T12:10:40.975Z,17.00
2018-09-24T12:13:15.785Z,16.79
2018-09-24T12:15:50.422Z,16.62
2018-09-24T12:34:21.965Z,16.39
2018-09-24T12:37:05.728Z,16.36
2018-09-24T12:39:47.086Z,16.22
2018-09-24T12:42:40.486Z,16.21
2018-09-24T12:45:26.488Z,16.24
2018-09-24T12:48:12.696Z,16.15
2018-09-24T13:00:22.027Z,15.89
2018-09-24T13:03:16.546Z,15.82
2018-09-24T13:06:06.305Z,15.79
2018-09-24T13:08:41.809Z,15.81
2018-09-24T13:11:16.404Z,16.02
2018-09-24T13:13:51.947Z,16.02
2018-09-24T13:16:27.410Z,15.88
2018-09-24T13:19:02.760Z,15.63
2018-09-24T13:21:37.465Z,15.48
2018-09-24T13:24:12.613Z,15.44
2018-09-24T13:26:47.397Z,15.51
2018-09-24T13:29:22.216Z,15.65
2018-09-24T13:31:56.817Z,15.90
2018-09-24T13:34:31.539Z,16.12
2018-09-24T13:37:06.187Z,16.40
2018-09-24T13:39:41.511Z,16.69
2018-09-24T13:42:16.314Z,16.77
2018-09-24T13:44:51.082Z,16.88
2018-09-24T13:47:25.809Z,17.00
2018-09-24T13:50:00.666Z,17.01
2018-09-24T13:52:35.290Z,17.12
2018-09-24T13:55:10.103Z,17.20
2018-09-24T13:57:45.876Z,17.04
2018-09-24T14:00:20.715Z,16.60
2018-09-24T14:02:55.750Z,16.51
2018-09-24T14:08:19.550Z,16.45
2018-09-24T14:10:56.123Z,16.48
2018-09-24T14:13:31.151Z,16.59
2018-09-24T14:16:19.570Z,16.84
2018-09-24T14:18:56.929Z,16.98
2018-09-24T14:21:33.194Z,17.15
2018-09-24T14:24:09.685Z,17.15
2018-09-24T14:26:44.615Z,17.07
2018-09-24T14:29:21.759Z,16.78
2018-09-24T14:31:59.858Z,16.74
2018-09-24T14:34:41.109Z,16.71
2018-09-24T14:37:16.010Z,16.78
2018-09-24T14:39:54.030Z,16.73
2018-09-24T14:42:29.208Z,16.73
2018-09-24T14:45:05.788Z,16.63
2018-09-24T14:47:40.869Z,16.75
2018-09-24T14:50:19.586Z,16.84
2018-09-24T14:52:55.351Z,16.78
2018-09-24T14:55:31.205Z,17.00
2018-09-24T14:58:08.698Z,16.92
2018-09-24T15:00:43.762Z,16.96
2018-09-24T15:03:19.281Z,17.08
2018-09-24T15:05:56.277Z,17.16
2018-09-24T15:08:31.597Z,17.14
2018-09-24T15:11:06.501Z,17.17
2018-09-24T15:13:41.822Z,17.19
2018-09-24T15:16:23.327Z,17.20
2018-09-24T15:18:58.769Z,17.30
2018-09-24T15:21:33.630Z,17.41
2018-09-24T15:24:08.665Z,17.45
2018-09-24T15:26:49.105Z,17.50
2018-09-24T15:32:20.107Z,17.71
2018-09-24T15:34:56.106Z,17.87
2018-09-24T15:37:31.025Z,17.64
2018-09-24T15:40:06.095Z,17.52
2018-09-24T15:42:40.805Z,17.70
2018-09-24T15:45:16.413Z,17.51
2018-09-24T15:47:51.139Z,17.46
2018-09-24T15:50:26.143Z,17.47
2018-09-24T15:53:04.648Z,17.34
2018-09-24T15:55:39.763Z,17.05
2018-09-24T15:58:17.034Z,16.58
2018-09-24T16:01:07.484Z,16.05
2018-09-24T16:03:42.446Z,15.42
2018-09-24T16:06:17.264Z,14.88
2018-09-24T16:08:52.151Z,14.39
2018-09-24T16:11:27.277Z,13.92
2018-09-24T16:14:02.405Z,13.52
2018-09-24T16:16:39.063Z,13.13
2018-09-24T16:19:13.933Z,12.82
2018-09-24T16:21:49.713Z,12.48
2018-09-24T16:50:33.488Z,10.10
2018-09-24T16:53:08.332Z,9.93
2018-09-24T16:55:44.511Z,9.72
2018-09-24T17:04:38.504Z,9.23
2018-09-24T17:07:33.505Z,9.04
2018-09-24T17:13:54.944Z,8.59
2018-09-24T17:16:30.245Z,8.43
2018-09-24T17:22:59.743Z,8.14
2018-09-24T17:25:34.881Z,8.05
2018-09-24T17:28:10.004Z,7.94
2018-09-24T17:30:45.924Z,7.79
2018-09-24T17:33:20.923Z,7.66
2018-09-24T17:35:56.324Z,7.59
2018-09-24T17:45:50.628Z,7.26
2018-09-24T18:08:05.433Z,6.45
2018-09-24T18:10:40.791Z,6.39
2018-09-24T18:13:15.764Z,6.31
2018-09-24T18:15:50.884Z,6.26
2018-09-24T18:18:25.884Z,6.15
2018-09-24T18:21:01.166Z,6.10
2018-09-24T18:23:36.403Z,6.02
2018-09-24T18:26:14.243Z,5.96
2018-09-24T18:28:49.096Z,5.89
2018-09-24T18:31:24.228Z,5.89
2018-09-24T18:34:08.373Z,5.82
2018-09-24T18:36:43.507Z,5.78
2018-09-24T18:39:26.159Z,5.68
2018-09-24T18:42:10.967Z,5.60
2018-09-24T18:45:11.449Z,5.60
2018-09-24T18:47:48.878Z,5.55
2018-09-24T18:53:41.823Z,5.48
2018-09-24T18:59:42.566Z,5.39
2018-09-24T19:03:01.570Z,5.31
2018-09-24T19:05:50.148Z,5.21
2018-09-24T19:08:59.151Z,5.16
2018-09-24T19:15:05.625Z,5.08
2018-09-24T19:17:40.704Z,5.06
2018-09-24T19:20:15.883Z,5.01
2018-09-24T19:22:50.783Z,4.92
2018-09-24T19:25:26.572Z,4.87
2018-09-24T19:28:01.485Z,4.83
2018-09-24T19:30:37.665Z,4.81
2018-09-24T19:33:13.183Z,4.83
2018-09-24T19:35:48.386Z,4.81
2018-09-24T19:38:23.626Z,4.83
2018-09-24T19:40:58.664Z,4.90
2018-09-24T19:43:34.711Z,4.97
2018-09-24T19:46:09.785Z,5.03
2018-09-24T19:48:44.924Z,5.07
2018-09-24T19:51:20.143Z,5.04
2018-09-24T19:53:55.163Z,4.98
2018-09-24T19:56:30.403Z,4.93
2018-09-24T19:59:05.609Z,4.89
2018-09-24T20:01:41.948Z,4.88
2018-09-24T20:04:17.325Z,4.93
2018-09-24T20:06:52.544Z,5.01
2018-09-24T20:09:27.610Z,5.05
2018-09-24T20:12:04.644Z,5.08
2018-09-24T20:14:41.452Z,5.06
2018-09-24T20:17:16.964Z,5.06
2018-09-24T20:19:51.944Z,5.10
2018-09-24T20:22:27.105Z,5.12
2018-09-24T20:25:02.188Z,5.19
2018-09-24T20:27:37.703Z,5.21
2018-09-24T20:30:12.743Z,5.25
2018-09-24T20:32:48.851Z,5.28
2018-09-24T20:35:24.242Z,5.29
2018-09-24T20:37:59.243Z,5.30
2018-09-24T20:40:34.665Z,5.36
2018-09-24T20:43:10.344Z,5.37
2018-09-24T20:45:45.352Z,5.29
2018-09-24T20:48:20.211Z,5.26
2018-09-24T20:50:55.428Z,5.24
2018-09-24T20:53:30.411Z,5.22
2018-09-24T20:56:05.922Z,5.15
2018-09-24T20:58:41.028Z,5.09
2018-09-24T21:01:16.303Z,5.09
2018-09-24T21:03:51.327Z,5.05
2018-09-24T21:06:26.283Z,4.96
2018-09-24T21:09:01.363Z,4.86
2018-09-24T21:11:36.523Z,4.77
2018-09-24T21:14:12.003Z,4.82
2018-09-24T21:16:47.083Z,4.81
2018-09-24T21:19:22.064Z,4.82
2018-09-24T21:21:58.905Z,4.83
2018-09-24T21:24:33.965Z,4.80
2018-09-24T21:27:08.838Z,4.79
2018-09-24T21:29:44.196Z,4.80
2018-09-24T21:32:19.106Z,4.77
2018-09-24T21:34:55.396Z,4.68
2018-09-24T21:37:31.621Z,4.60
2018-09-24T21:40:06.336Z,4.48
2018-09-24T21:42:41.556Z,4.41
2018-09-24T21:45:17.064Z,4.39
2018-09-24T21:47:51.923Z,4.43
2018-09-24T21:50:26.847Z,4.38
2018-09-24T21:53:03.565Z,4.32
2018-09-24T21:55:39.178Z,4.30
2018-09-24T21:58:14.255Z,4.23
2018-09-24T22:00:49.038Z,4.25
2018-09-24T22:03:23.919Z,4.15
2018-09-24T22:05:59.039Z,4.11
2018-09-24T22:08:34.097Z,4.08
2018-09-24T22:11:09.424Z,3.99
2018-09-24T22:13:44.357Z,4.00
2018-09-24T22:16:19.736Z,3.95
2018-09-24T22:18:54.697Z,3.96
2018-09-24T22:21:29.624Z,3.97
2018-09-24T22:24:04.658Z,3.97
2018-09-24T22:26:39.556Z,3.95
2018-09-24T22:29:14.581Z,3.97
2018-09-24T22:31:49.732Z,3.89
2018-09-24T22:34:24.657Z,3.89
2018-09-24T22:36:59.777Z,3.89
2018-09-24T22:39:34.740Z,3.94
2018-09-24T22:42:09.956Z,3.90
2018-09-24T22:44:45.157Z,3.89
2018-09-24T22:47:20.025Z,3.88
2018-09-24T22:49:54.845Z,3.92
2018-09-24T22:52:31.216Z,3.85
2018-09-24T22:55:06.245Z,3.88
2018-09-24T22:57:41.557Z,3.82
2018-09-24T23:00:16.638Z,3.78
2018-09-24T23:02:51.542Z,3.81
2018-09-24T23:05:26.337Z,3.82
2018-09-24T23:08:02.597Z,3.72
2018-09-24T23:10:37.378Z,3.65
2018-09-24T23:13:12.019Z,3.57
2018-09-24T23:15:46.876Z,3.61
2018-09-24T23:18:21.901Z,3.63
2018-09-24T23:20:56.618Z,3.63
2018-09-24T23:23:31.378Z,3.66
2018-09-24T23:26:06.356Z,3.67
2018-09-24T23:28:41.156Z,3.66
2018-09-24T23:31:16.525Z,3.57
2018-09-24T23:33:51.343Z,3.52
2018-09-24T23:36:26.436Z,3.52
2018-09-24T23:39:01.443Z,3.51
2018-09-24T23:41:36.557Z,3.49
2018-09-24T23:44:11.476Z,3.46
2018-09-24T23:46:46.476Z,3.37
2018-09-24T23:49:21.165Z,3.28
2018-09-24T23:51:56.916Z,3.20
2018-09-24T23:54:31.917Z,3.18
2018-09-24T23:57:07.756Z,3.27
2018-09-24T23:59:42.754Z,3.28
